createdAt,value
2022-10-04T08:32:54.999Z,6.38
2022-10-04T08:35:50.621Z,7.15
2022-10-04T08:38:34.664Z,6.43
2022-10-04T08:41:37.656Z,6.13
2022-10-04T08:44:33.658Z,6.85
2022-10-04T08:47:35.283Z,6.20
2022-10-04T08:50:38.678Z,5.75
2022-10-04T08:53:48.872Z,6.13
2022-10-04T08:56:26.203Z,6.65
2022-10-04T08:59:30.253Z,5.82
2022-10-04T09:02:52.564Z,6.72
2022-10-04T09:05:39.628Z,7.22
2022-10-04T09:08:41.267Z,6.22
2022-10-04T09:11:45.525Z,6.30
2022-10-04T09:14:51.500Z,6.15
2022-10-04T09:17:25.753Z,6.20
2022-10-04T09:20:13.889Z,6.20
2022-10-04T09:22:59.941Z,5.88
2022-10-04T09:25:50.572Z,5.03
2022-10-04T09:28:42.280Z,5.18
2022-10-04T09:31:30.381Z,5.80
2022-10-04T09:34:23.918Z,5.10
2022-10-04T09:37:31.228Z,5.65
2022-10-04T09:40:34.909Z,6.20
2022-10-04T09:43:19.220Z,5.50
2022-10-04T09:46:09.205Z,4.88
2022-10-04T09:48:43.680Z,5.85
2022-10-04T09:51:26.964Z,5.37
2022-10-04T09:54:13.566Z,4.93
2022-10-04T09:57:07.550Z,5.38
2022-10-04T10:00:03.541Z,5.10
2022-10-04T10:03:27.911Z,5.32
2022-10-04T10:06:22.359Z,4.75
2022-10-04T10:09:04.095Z,4.60
2022-10-04T10:11:59.480Z,5.38
2022-10-04T10:15:00.696Z,5.43
2022-10-04T10:17:40.750Z,4.78
2022-10-04T10:20:33.661Z,4.22
2022-10-04T10:23:36.519Z,4.43
2022-10-04T10:26:25.911Z,4.32
2022-10-04T10:29:15.223Z,7.97
2022-10-04T10:32:02.014Z,36.88
2022-10-04T10:35:12.276Z,26.58
2022-10-04T10:37:54.460Z,8.80
2022-10-04T10:40:41.552Z,5.22
2022-10-04T10:43:24.202Z,18.40
2022-10-04T10:46:06.372Z,11.70
2022-10-04T10:48:54.652Z,18.85
2022-10-04T10:51:44.622Z,10.15
2022-10-04T10:54:40.128Z,19.80
2022-10-04T10:57:23.568Z,11.40
2022-10-04T11:00:17.686Z,6.15
2022-10-04T11:03:24.705Z,5.43
2022-10-04T11:06:17.383Z,4.85
2022-10-04T11:09:30.074Z,10.60
2022-10-04T11:12:39.642Z,7.63
2022-10-04T11:15:40.124Z,5.28
2022-10-04T11:19:00.658Z,4.82
2022-10-04T11:22:07.735Z,9.95
2022-10-04T11:25:03.182Z,6.25
2022-10-04T11:27:49.303Z,5.00
2022-10-04T11:30:24.994Z,4.40
2022-10-04T11:36:19.112Z,5.07
2022-10-04T11:39:35.608Z,4.53
2022-10-04T11:42:19.200Z,4.15
2022-10-04T11:45:18.269Z,4.13
2022-10-04T11:48:02.489Z,5.00
2022-10-04T11:50:40.462Z,4.30
2022-10-04T11:53:48.318Z,4.72
2022-10-04T11:56:34.148Z,8.88
2022-10-04T12:02:25.594Z,5.68
2022-10-04T12:05:27.911Z,3.72
2022-10-04T12:08:11.842Z,4.18
2022-10-04T12:10:41.891Z,5.50
2022-10-04T12:13:51.094Z,10.75
2022-10-04T12:16:41.804Z,6.32
2022-10-04T12:19:41.363Z,5.35
2022-10-04T12:22:24.880Z,15.00
2022-10-04T12:25:16.378Z,11.23
2022-10-04T12:28:17.456Z,5.10
2022-10-04T12:31:08.529Z,4.90
2022-10-04T12:33:46.328Z,4.47
2022-10-04T12:36:40.314Z,3.85
2022-10-04T12:39:24.472Z,5.68
2022-10-04T12:42:06.757Z,3.90
2022-10-04T12:44:48.843Z,8.40
2022-10-04T12:47:45.521Z,5.40
2022-10-04T12:50:27.863Z,7.43
2022-10-04T12:53:08.973Z,6.95
2022-10-04T12:55:55.860Z,16.48
2022-10-04T12:58:30.347Z,10.38
2022-10-04T13:01:11.860Z,7.20
2022-10-04T13:04:03.867Z,5.43
2022-10-04T13:06:43.537Z,7.25
2022-10-04T13:09:19.083Z,7.93
2022-10-04T13:12:02.335Z,5.22
2022-10-04T13:14:48.732Z,3.70
2022-10-04T13:17:35.393Z,5.72
2022-10-04T13:20:26.431Z,4.10
2022-10-04T13:23:00.398Z,5.13
2022-10-04T13:25:46.564Z,4.28
2022-10-04T13:28:24.761Z,4.18
2022-10-04T13:31:01.017Z,5.57
2022-10-04T13:33:39.224Z,9.43
2022-10-04T13:36:12.644Z,6.00
2022-10-04T13:39:07.734Z,5.80
2022-10-04T13:41:49.529Z,4.57
2022-10-04T13:44:46.049Z,4.05
2022-10-04T13:47:46.848Z,4.78
2022-10-04T13:50:39.291Z,3.70
2022-10-04T13:53:45.606Z,5.95
2022-10-04T13:56:43.592Z,4.63
2022-10-04T13:59:23.020Z,3.63
2022-10-04T14:02:17.656Z,3.25
2022-10-04T14:05:29.599Z,8.68
2022-10-04T14:08:28.067Z,19.98
2022-10-04T14:11:28.733Z,16.50
2022-10-04T14:14:44.901Z,8.65
2022-10-04T14:17:50.200Z,7.27
2022-10-04T14:21:00.295Z,6.68
2022-10-04T14:23:54.783Z,9.10
2022-10-04T14:27:03.354Z,3.40
2022-10-04T14:30:08.217Z,6.25
2022-10-04T14:33:16.686Z,6.88
2022-10-04T14:35:53.237Z,4.53
2022-10-04T14:38:41.639Z,4.68
2022-10-04T14:41:58.950Z,8.32
2022-10-04T14:44:45.387Z,8.10
2022-10-04T14:47:43.127Z,5.68
2022-10-04T14:50:32.244Z,8.27
2022-10-04T14:53:11.730Z,12.35
2022-10-04T14:56:07.765Z,13.85
2022-10-04T14:58:44.006Z,11.82
2022-10-04T15:01:22.133Z,9.68
2022-10-04T15:04:14.107Z,14.40
2022-10-04T15:06:50.132Z,8.75
2022-10-04T15:09:56.138Z,8.07
2022-10-04T15:13:10.668Z,17.08
2022-10-04T15:16:00.696Z,36.92
2022-10-04T15:18:38.500Z,14.50
2022-10-04T15:21:21.342Z,34.10
2022-10-04T15:23:58.909Z,11.10
2022-10-04T15:26:51.967Z,4.57
2022-10-04T15:29:27.475Z,3.10
2022-10-04T15:32:07.822Z,9.00
2022-10-04T15:34:43.084Z,4.15
2022-10-04T15:37:27.967Z,4.93
2022-10-04T15:40:17.042Z,3.03
2022-10-04T15:43:05.882Z,3.50
2022-10-04T15:46:03.592Z,3.70
2022-10-04T15:48:50.889Z,3.20
2022-10-04T15:51:49.209Z,3.22
2022-10-04T15:54:58.453Z,3.03
2022-10-04T15:57:37.577Z,3.10
2022-10-04T16:00:14.060Z,3.80
2022-10-04T16:03:15.260Z,4.10
2022-10-04T16:05:47.561Z,2.90
2022-10-04T16:08:30.505Z,7.13
2022-10-04T16:11:12.751Z,6.40
2022-10-04T16:14:12.759Z,3.55
2022-10-04T16:17:02.204Z,3.90
2022-10-04T16:19:49.963Z,4.72
2022-10-04T16:22:21.275Z,10.23
2022-10-04T16:24:53.823Z,16.92
2022-10-04T16:27:51.357Z,15.20
2022-10-04T16:30:31.608Z,12.02
2022-10-04T16:33:25.904Z,14.15
2022-10-04T16:36:08.930Z,34.75
2022-10-04T16:39:05.812Z,21.73
2022-10-04T16:41:41.098Z,8.18
2022-10-04T16:44:26.095Z,4.95
2022-10-04T16:47:00.178Z,4.03
2022-10-04T16:49:38.850Z,4.10
2022-10-04T16:52:36.182Z,4.50
2022-10-04T16:55:25.026Z,4.20
2022-10-04T16:58:26.475Z,3.53
2022-10-04T17:01:34.391Z,4.30
2022-10-04T17:04:23.527Z,3.83
2022-10-04T17:06:58.157Z,3.42
2022-10-04T17:09:31.160Z,3.40
2022-10-04T17:12:12.922Z,3.75
2022-10-04T17:15:07.284Z,4.05
2022-10-04T17:17:46.167Z,3.58
2022-10-04T17:20:35.488Z,3.63
2022-10-04T17:23:21.819Z,2.90
2022-10-04T17:26:01.055Z,3.95
2022-10-04T17:28:31.441Z,3.22
2022-10-04T17:31:10.962Z,3.80
2022-10-04T17:33:53.749Z,4.60
2022-10-04T17:36:35.862Z,4.90
2022-10-04T17:39:26.869Z,3.97
2022-10-04T17:42:08.518Z,4.18
2022-10-04T17:44:46.786Z,3.10
2022-10-04T17:47:24.142Z,3.65
2022-10-04T17:50:19.192Z,4.35
2022-10-04T17:53:12.722Z,3.97
2022-10-04T17:55:47.995Z,4.53
2022-10-04T17:58:19.919Z,4.60
2022-10-04T18:01:00.844Z,5.72
2022-10-04T18:03:39.125Z,3.95
2022-10-04T18:06:18.731Z,4.50
2022-10-04T18:08:56.776Z,4.50
2022-10-04T18:11:32.409Z,5.72
2022-10-04T18:14:06.253Z,6.47
2022-10-04T18:16:48.559Z,5.07
2022-10-04T18:19:40.217Z,5.63
2022-10-04T18:22:15.099Z,21.40
2022-10-04T18:24:46.822Z,14.25
2022-10-04T18:27:21.314Z,11.95
2022-10-04T18:30:00.985Z,13.13
2022-10-04T18:32:35.069Z,15.43
2022-10-04T18:35:19.350Z,9.68
2022-10-04T18:37:47.438Z,9.05
2022-10-04T18:40:19.002Z,14.00
2022-10-04T18:42:54.059Z,9.57
2022-10-04T18:45:25.721Z,10.35
2022-10-04T18:47:55.361Z,15.32
2022-10-04T18:50:39.404Z,10.52
2022-10-04T18:53:28.126Z,8.63
2022-10-04T18:56:03.648Z,11.13
2022-10-04T18:59:11.571Z,8.73
2022-10-04T19:02:04.252Z,15.48
2022-10-04T19:04:45.786Z,17.15
2022-10-04T19:07:17.220Z,30.23
2022-10-04T19:10:04.861Z,30.25
2022-10-04T19:12:44.471Z,16.65
2022-10-04T19:15:37.864Z,11.82
2022-10-04T19:18:20.950Z,7.90
2022-10-04T19:20:56.239Z,7.70
2022-10-04T19:23:33.791Z,19.30
2022-10-04T19:26:32.074Z,10.73
2022-10-04T19:29:13.647Z,11.90
2022-10-04T19:31:52.492Z,10.55
2022-10-04T19:34:29.003Z,9.73
2022-10-04T19:37:02.243Z,12.52
2022-10-04T19:39:43.409Z,12.45
2022-10-04T19:42:15.174Z,14.13
2022-10-04T19:45:00.090Z,12.38
2022-10-04T19:47:40.651Z,11.23
2022-10-04T19:50:19.535Z,14.10
2022-10-04T19:52:54.098Z,11.38
2022-10-04T19:55:33.110Z,11.53
2022-10-04T19:58:14.752Z,11.45
2022-10-04T20:00:44.193Z,13.80
2022-10-04T20:03:13.431Z,19.48
2022-10-04T20:05:46.909Z,13.70
2022-10-04T20:08:16.671Z,16.27
2022-10-04T20:10:45.601Z,11.27
2022-10-04T20:13:25.914Z,12.68
2022-10-04T20:15:58.740Z,15.82
2022-10-04T20:19:00.502Z,21.58
2022-10-04T20:21:32.185Z,14.00
2022-10-04T20:24:02.171Z,15.77
2022-10-04T20:26:54.962Z,8.55
2022-10-04T20:30:04.930Z,7.32
2022-10-04T20:33:00.014Z,6.28
2022-10-04T20:36:05.295Z,6.18
2022-10-04T20:38:53.657Z,6.65
2022-10-04T20:42:01.820Z,6.78
2022-10-04T20:44:54.282Z,5.68
2022-10-04T20:47:42.147Z,6.50
2022-10-04T20:50:26.673Z,6.03
2022-10-04T20:52:59.189Z,5.53
2022-10-04T20:55:29.553Z,6.05
2022-10-04T20:58:00.995Z,5.90
2022-10-04T21:00:33.994Z,6.43
2022-10-04T21:03:17.924Z,5.30
2022-10-04T21:06:01.119Z,5.45
2022-10-04T21:08:30.532Z,5.85
2022-10-04T21:11:23.931Z,5.88
2022-10-04T21:13:58.367Z,5.28
2022-10-04T21:16:44.559Z,5.10
2022-10-04T21:19:45.299Z,5.97
2022-10-04T21:22:36.681Z,5.30
2022-10-04T21:25:21.897Z,6.40
2022-10-04T21:27:49.862Z,5.93
2022-10-04T21:30:19.619Z,5.53
2022-10-04T21:32:48.067Z,5.30
2022-10-04T21:35:16.033Z,5.47
2022-10-04T21:37:45.908Z,29.10
2022-10-04T21:40:14.349Z,20.33
2022-10-04T21:42:42.564Z,10.05
2022-10-04T21:45:11.234Z,6.30
2022-10-04T21:47:39.195Z,6.75
2022-10-04T21:50:08.359Z,6.25
2022-10-04T21:52:36.335Z,6.35
2022-10-04T21:55:11.004Z,6.20
2022-10-04T21:57:38.967Z,9.23
2022-10-04T22:00:09.091Z,8.82
2022-10-04T22:02:37.686Z,8.82
2022-10-04T22:05:06.092Z,10.13
2022-10-04T22:07:34.178Z,9.88
2022-10-04T22:10:02.618Z,13.77
2022-10-04T22:12:32.018Z,14.52
2022-10-04T22:15:00.700Z,13.30
2022-10-04T22:17:28.782Z,26.65
2022-10-04T22:19:56.748Z,15.85
2022-10-04T22:22:25.546Z,12.73
2022-10-04T22:24:53.512Z,15.43
2022-10-04T22:27:21.949Z,8.90
2022-10-04T22:29:51.831Z,7.50
2022-10-04T22:32:24.722Z,6.10
2022-10-04T22:34:54.357Z,5.53
2022-10-04T22:37:25.561Z,5.50
2022-10-04T22:39:54.608Z,6.32
2022-10-04T22:42:28.926Z,5.28
2022-10-04T22:45:00.141Z,5.70
2022-10-04T22:47:28.929Z,5.93
2022-10-04T22:49:57.729Z,5.25
2022-10-04T22:52:27.493Z,5.00
2022-10-04T22:55:00.502Z,5.95
2022-10-04T22:57:29.176Z,5.60
2022-10-04T22:59:58.577Z,6.18
2022-10-04T23:02:32.113Z,5.43
2022-10-04T23:05:10.646Z,4.95
2022-10-04T23:07:39.384Z,5.30
2022-10-04T23:10:08.431Z,5.18
2022-10-04T23:12:36.512Z,4.65
2022-10-04T23:15:08.199Z,5.28
2022-10-04T23:17:37.952Z,5.00
2022-10-04T23:20:14.076Z,5.32
2022-10-04T23:22:45.044Z,5.50
2022-10-04T23:25:18.177Z,4.88
2022-10-04T23:27:46.727Z,4.85
2022-10-04T23:30:19.123Z,4.97
2022-10-04T23:32:49.250Z,5.22
2022-10-04T23:35:22.013Z,5.05
2022-10-04T23:37:50.577Z,5.80
2022-10-04T23:40:22.256Z,4.20
2022-10-04T23:42:52.263Z,4.93
2022-10-04T23:45:24.071Z,5.22
2022-10-04T23:47:55.380Z,6.03
2022-10-04T23:50:27.181Z,4.72
2022-10-04T23:53:02.352Z,5.05
2022-10-04T23:55:34.146Z,5.05
2022-10-04T23:58:02.715Z,4.70
